Time;durP1;ratioP1;P1;durP2;ratioP2;P2;SDS_P1;SDS_P2;PMS_P1;PMS_P2;Temp;Humidity;BMP_temperature;BMP_pressure;BME280_temperature;BME280_humidity;BME280_pressure;Samples;Min_cycle;Max_cycle;Signal;HPM_P1;HPM_P2
2021/06/19 00:01:22;;;;;;;10.50;4.28;;;;;;;26.36;47.95;99593.72;2248385;39;20058;-80
2021/06/19 00:02:54;;;;;;;9.75;4.35;;;;;;;26.28;48.19;99586.78;2245758;39;20027;-80
2021/06/19 00:04:25;;;;;;;8.93;4.35;;;;;;;26.27;48.05;99570.63;2244614;39;20032;-80
2021/06/19 00:05:57;;;;;;;11.45;4.07;;;;;;;26.29;48.10;99555.56;2247769;39;20062;-80
2021/06/19 00:07:28;;;;;;;11.10;4.53;;;;;;;26.33;48.05;99544.09;2247872;39;20055;-81
2021/06/19 00:09:01;;;;;;;8.25;4.07;;;;;;;26.39;48.10;99543.03;2246319;39;20039;-80
2021/06/19 00:10:32;;;;;;;11.52;4.57;;;;;;;26.34;48.21;99540.28;2248390;39;20019;-80
2021/06/19 00:12:05;;;;;;;8.45;3.95;;;;;;;26.37;48.05;99542.47;2248615;39;20050;-80
2021/06/19 00:13:38;;;;;;;10.70;4.47;;;;;;;26.38;48.15;99531.28;2247567;39;20059;-81
2021/06/19 00:15:11;;;;;;;10.57;3.75;;;;;;;26.40;47.81;99531.00;2249457;39;20044;-80
2021/06/19 00:16:43;;;;;;;9.50;4.22;;;;;;;26.46;48.04;99543.63;2245314;39;20028;-80
2021/06/19 00:18:14;;;;;;;8.57;3.72;;;;;;;26.50;47.65;99558.47;2245988;39;20047;-80
2021/06/19 00:19:45;;;;;;;7.07;4.03;;;;;;;26.52;47.58;99563.69;2248211;39;20047;-80
2021/06/19 00:21:17;;;;;;;10.02;4.07;;;;;;;26.56;47.41;99571.13;2248146;39;20035;-79
2021/06/19 00:22:50;;;;;;;7.25;3.95;;;;;;;26.62;47.06;99581.06;2245959;39;20031;-80
2021/06/19 00:24:23;;;;;;;7.10;3.40;;;;;;;26.65;46.87;99576.94;2242891;39;20019;-80
2021/06/19 00:25:54;;;;;;;9.65;4.05;;;;;;;26.67;47.22;99590.38;2248445;39;20046;-80
2021/06/19 00:27:25;;;;;;;9.30;3.72;;;;;;;26.66;47.19;99591.47;2243447;39;20032;-80
2021/06/19 00:28:59;;;;;;;7.72;3.67;;;;;;;26.64;47.23;99594.47;2247851;39;20405;-80
2021/06/19 00:30:30;;;;;;;7.10;4.00;;;;;;;26.65;47.20;99592.56;2248711;39;20051;-80
2021/06/19 00:32:01;;;;;;;8.88;3.90;;;;;;;26.62;47.46;99602.13;2248226;39;20027;-80
2021/06/19 00:33:33;;;;;;;11.30;4.38;;;;;;;26.57;47.25;99594.69;2249293;39;20030;-80
2021/06/19 00:35:05;;;;;;;8.93;3.78;;;;;;;26.48;47.27;99588.06;2247959;39;20049;-80
2021/06/19 00:36:37;;;;;;;9.77;4.22;;;;;;;26.40;47.66;99594.00;2248152;39;20040;-81
2021/06/19 00:38:09;;;;;;;13.25;4.70;;;;;;;26.35;47.79;99597.53;2247928;39;20058;-79
2021/06/19 00:39:40;;;;;;;8.88;4.10;;;;;;;26.30;48.09;99598.31;2245888;39;20403;-79
2021/06/19 00:41:13;;;;;;;8.82;4.38;;;;;;;26.31;47.81;99597.22;2245553;39;20058;-80
2021/06/19 00:42:51;;;;;;;8.15;3.92;;;;;;;26.38;47.83;99601.66;2245710;39;20050;-82
2021/06/19 00:44:24;;;;;;;6.15;3.83;;;;;;;26.40;47.70;99602.22;2245159;39;20031;-83
2021/06/19 00:45:56;;;;;;;8.93;4.22;;;;;;;26.41;47.78;99612.09;2244762;39;20444;-81
2021/06/19 00:47:28;;;;;;;11.07;4.57;;;;;;;26.48;47.77;99618.19;2244628;39;20062;-82
2021/06/19 00:48:59;;;;;;;6.35;3.60;;;;;;;26.50;47.74;99621.50;2247349;39;20070;-80
2021/06/19 00:50:31;;;;;;;6.80;3.92;;;;;;;26.55;47.70;99634.41;2248107;39;20024;-82
2021/06/19 00:52:04;;;;;;;5.68;3.70;;;;;;;26.56;47.49;99625.13;2245189;39;20046;-81
2021/06/19 00:53:36;;;;;;;8.02;3.60;;;;;;;26.57;47.71;99635.81;2243033;39;20051;-80
2021/06/19 00:55:07;;;;;;;11.02;3.85;;;;;;;26.61;48.10;99634.22;2246852;39;20055;-79
2021/06/19 00:56:40;;;;;;;7.57;4.25;;;;;;;26.62;48.28;99640.50;2245601;39;20028;-81
2021/06/19 00:58:13;;;;;;;9.10;4.05;;;;;;;26.62;48.63;99635.88;2247745;39;20109;-80
2021/06/19 00:59:47;;;;;;;5.43;3.40;;;;;;;26.62;49.26;99640.50;2243219;39;20043;-82
2021/06/19 01:01:19;;;;;;;7.40;3.72;;;;;;;26.55;49.36;99643.47;2248367;39;20036;-82
2021/06/19 01:02:54;;;;;;;8.55;4.07;;;;;;;26.45;49.99;99668.06;2249718;39;20028;-82
2021/06/19 01:04:26;;;;;;;13.43;4.70;;;;;;;26.26;50.59;99673.06;2242901;39;20028;-82
2021/06/19 01:05:58;;;;;;;9.20;3.92;;;;;;;26.11;51.11;99688.25;2242659;39;20043;-82
2021/06/19 01:07:29;;;;;;;7.07;3.63;;;;;;;25.98;51.21;99683.94;2246620;39;20418;-81
2021/06/19 01:09:01;;;;;;;10.85;4.30;;;;;;;25.92;51.60;99682.25;2249674;39;20038;-80
2021/06/19 01:10:33;;;;;;;12.40;5.43;;;;;;;25.88;51.49;99686.59;2249045;39;20541;-82
2021/06/19 01:12:06;;;;;;;9.00;4.20;;;;;;;25.86;51.44;99688.75;2249646;39;20058;-82
2021/06/19 01:13:38;;;;;;;8.80;4.28;;;;;;;25.84;51.61;99669.00;2248072;39;20035;-81
2021/06/19 01:15:12;;;;;;;11.05;4.07;;;;;;;25.82;51.61;99663.78;2248751;39;20038;-81
2021/06/19 01:16:47;;;;;;;8.13;4.00;;;;;;;25.80;51.84;99659.63;2247365;39;20032;-82
2021/06/19 01:18:19;;;;;;;7.57;3.80;;;;;;;25.81;51.79;99670.34;2247756;39;20028;-82
2021/06/19 01:20:00;;;;;;;7.18;3.70;;;;;;;25.87;51.63;99663.03;2249739;39;20031;-81
2021/06/19 01:21:33;;;;;;;8.80;3.90;;;;;;;25.92;51.41;99667.72;2249062;39;20043;-83
2021/06/19 01:23:04;;;;;;;10.30;4.32;;;;;;;25.93;51.67;99663.91;2246840;39;20040;-83
2021/06/19 01:24:37;;;;;;;13.38;4.03;;;;;;;25.93;51.59;99667.47;2242718;39;20032;-81
2021/06/19 01:26:09;;;;;;;9.73;4.53;;;;;;;25.91;51.70;99660.59;2242741;39;20031;-80
2021/06/19 01:27:41;;;;;;;13.77;4.95;;;;;;;25.91;51.80;99653.19;2248709;39;20027;-80
2021/06/19 01:29:13;;;;;;;8.07;3.80;;;;;;;25.91;51.76;99650.47;2249088;39;20035;-80
2021/06/19 01:30:47;;;;;;;13.48;4.25;;;;;;;25.92;51.92;99654.88;2248701;39;20023;-81
2021/06/19 01:32:18;;;;;;;16.52;4.85;;;;;;;25.93;52.11;99650.22;2248696;39;20130;-81
2021/06/19 01:33:51;;;;;;;11.73;4.55;;;;;;;25.92;52.23;99637.63;2244495;39;20664;-80
2021/06/19 01:35:23;;;;;;;10.77;4.38;;;;;;;25.89;52.19;99647.16;2243090;39;20024;-80
2021/06/19 01:36:55;;;;;;;10.43;4.15;;;;;;;25.81;52.52;99647.59;2246399;39;20032;-81
2021/06/19 01:38:26;;;;;;;11.70;4.55;;;;;;;25.75;52.73;99638.50;2242634;39;20080;-81
2021/06/19 01:40:06;;;;;;;8.18;4.43;;;;;;;25.75;52.97;99643.97;2244773;39;20560;-80
2021/06/19 01:41:38;;;;;;;11.35;4.38;;;;;;;25.73;53.45;99643.44;2241786;39;20036;-80
2021/06/19 01:43:09;;;;;;;9.25;4.63;;;;;;;25.72;53.86;99633.56;2245477;39;20035;-80
2021/06/19 01:44:41;;;;;;;12.18;5.18;;;;;;;25.61;54.33;99634.50;2248045;39;20031;-79
2021/06/19 01:46:13;;;;;;;14.98;5.45;;;;;;;25.52;54.57;99634.13;2247635;39;20024;-79
2021/06/19 01:47:46;;;;;;;7.00;4.65;;;;;;;25.50;54.84;99636.31;2248208;39;20311;-80
2021/06/19 01:49:17;;;;;;;12.15;5.05;;;;;;;25.45;55.10;99631.59;2244933;39;20402;-79
2021/06/19 01:50:49;;;;;;;7.72;4.20;;;;;;;25.34;55.54;99625.09;2248429;39;20311;-80
2021/06/19 01:52:20;;;;;;;8.93;5.00;;;;;;;25.29;55.45;99630.53;2247810;39;20430;-79
2021/06/19 01:53:53;;;;;;;11.13;4.95;;;;;;;25.24;55.31;99622.22;2243633;39;20054;-80
2021/06/19 01:55:25;;;;;;;14.93;4.93;;;;;;;25.21;55.15;99629.03;2243590;39;20022;-78
2021/06/19 01:56:57;;;;;;;10.48;5.25;;;;;;;25.14;55.55;99620.19;2248569;39;20035;-80
2021/06/19 01:58:30;;;;;;;7.95;4.65;;;;;;;25.15;55.46;99619.13;2247468;39;20039;-79
2021/06/19 02:00:03;;;;;;;9.38;4.70;;;;;;;25.16;55.29;99622.66;2247330;39;20056;-80
2021/06/19 02:01:35;;;;;;;11.90;5.30;;;;;;;25.23;55.49;99620.56;2248838;39;20028;-78
2021/06/19 02:03:07;;;;;;;12.18;5.07;;;;;;;25.25;55.76;99621.16;2246705;39;20595;-79
2021/06/19 02:04:39;;;;;;;11.82;5.20;;;;;;;25.23;56.26;99617.84;2249836;39;20058;-79
2021/06/19 02:06:11;;;;;;;11.40;6.07;;;;;;;25.09;56.99;99609.16;2244643;39;20043;-79
2021/06/19 02:07:51;;;;;;;11.00;5.80;;;;;;;24.92;57.93;99609.22;2244534;39;20024;-79
2021/06/19 02:09:23;;;;;;;10.23;4.95;;;;;;;24.79;58.71;99610.41;2248392;39;20028;-80
2021/06/19 02:10:58;;;;;;;12.02;5.25;;;;;;;24.69;58.79;99600.13;2248515;39;20319;-80
2021/06/19 02:12:30;;;;;;;12.00;5.93;;;;;;;24.68;59.27;99601.19;2247928;39;20031;-80
2021/06/19 02:14:02;;;;;;;12.50;7.10;;;;;;;24.65;58.92;99598.94;2248591;39;20031;-80
2021/06/19 02:15:35;;;;;;;10.25;4.70;;;;;;;24.59;58.50;99589.84;2248064;39;20042;-80
2021/06/19 02:17:06;;;;;;;15.15;4.75;;;;;;;24.53;58.45;99588.06;2244447;39;20327;-81
2021/06/19 02:18:38;;;;;;;13.20;4.97;;;;;;;24.43;58.37;99580.56;2244326;39;20039;-81
2021/06/19 02:20:11;;;;;;;16.17;5.13;;;;;;;24.34;58.41;99573.84;2243517;39;20374;-79
2021/06/19 02:21:43;;;;;;;10.02;4.28;;;;;;;24.26;58.52;99575.06;2244628;39;20108;-79
2021/06/19 02:23:15;;;;;;;12.60;4.35;;;;;;;24.20;59.25;99567.03;2247572;39;20031;-80
2021/06/19 02:24:47;;;;;;;15.13;5.50;;;;;;;24.13;59.78;99575.41;2247874;39;20043;-81
2021/06/19 02:26:20;;;;;;;13.25;4.93;;;;;;;24.11;59.91;99572.91;2249731;39;20043;-80
2021/06/19 02:27:52;;;;;;;12.88;4.90;;;;;;;24.17;60.09;99568.38;2249268;39;20047;-78
2021/06/19 02:29:24;;;;;;;10.35;5.40;;;;;;;24.21;59.94;99576.88;2249287;39;20075;-80
2021/06/19 02:30:58;;;;;;;11.73;4.28;;;;;;;24.16;60.18;99574.09;2247874;39;20027;-79
2021/06/19 02:32:29;;;;;;;12.18;4.90;;;;;;;24.07;60.36;99576.38;2245065;39;20032;-79
2021/06/19 02:34:01;;;;;;;14.10;4.95;;;;;;;24.01;60.19;99586.38;2242674;39;20030;-80
2021/06/19 02:35:34;;;;;;;9.25;4.47;;;;;;;24.01;60.15;99589.09;2242901;39;20031;-80
2021/06/19 02:37:07;;;;;;;8.60;4.22;;;;;;;24.07;60.03;99593.59;2243440;39;20024;-80
2021/06/19 02:38:38;;;;;;;13.60;4.90;;;;;;;24.04;59.77;99591.34;2244861;39;20028;-80
2021/06/19 02:40:10;;;;;;;11.13;4.75;;;;;;;24.00;59.76;99587.44;2249888;39;20284;-81
2021/06/19 02:41:43;;;;;;;14.10;4.97;;;;;;;24.05;59.82;99600.34;2246882;39;20064;-80
2021/06/19 02:43:16;;;;;;;11.77;4.38;;;;;;;24.07;59.59;99600.94;2242660;39;20041;-80
2021/06/19 02:44:47;;;;;;;10.80;3.83;;;;;;;24.19;59.38;99606.34;2246761;39;20015;-83
2021/06/19 02:46:19;;;;;;;10.05;3.90;;;;;;;24.26;58.86;99609.75;2247787;39;20035;-82
2021/06/19 02:47:51;;;;;;;6.85;3.53;;;;;;;24.24;58.95;99607.25;2250264;39;20058;-81
2021/06/19 02:49:23;;;;;;;14.85;4.53;;;;;;;24.23;59.18;99607.50;2247364;39;20028;-77
2021/06/19 02:50:56;;;;;;;11.27;3.05;;;;;;;24.22;59.05;99605.84;2247745;39;20031;-79
2021/06/19 02:52:27;;;;;;;9.82;3.83;;;;;;;24.24;58.93;99609.16;2247065;39;20054;-79
2021/06/19 02:53:59;;;;;;;6.93;3.63;;;;;;;24.30;58.64;99616.38;2246321;39;20042;-80
2021/06/19 02:55:33;;;;;;;10.65;3.92;;;;;;;24.38;58.61;99602.31;2244129;39;20308;-81
2021/06/19 02:57:07;;;;;;;13.48;4.05;;;;;;;24.33;59.72;99602.22;2248011;39;20041;-79
2021/06/19 02:58:39;;;;;;;10.98;4.80;;;;;;;24.16;60.25;99606.84;2246761;39;20055;-81
2021/06/19 03:00:11;;;;;;;17.23;4.97;;;;;;;24.06;61.54;99611.03;2247317;39;20020;-81
2021/06/19 03:01:45;;;;;;;14.68;5.72;;;;;;;23.95;61.79;99614.66;2243699;39;20048;-82
2021/06/19 03:03:17;;;;;;;10.40;4.65;;;;;;;23.89;62.26;99618.34;2246985;39;20043;-82
2021/06/19 03:04:48;;;;;;;11.20;4.30;;;;;;;23.80;62.63;99613.25;2245396;39;20043;-80
2021/06/19 03:06:20;;;;;;;11.57;4.68;;;;;;;23.85;62.75;99607.06;2246543;39;20047;-81
2021/06/19 03:07:53;;;;;;;8.13;4.43;;;;;;;23.94;62.58;99612.97;2245406;39;20059;-76
2021/06/19 03:09:25;;;;;;;9.43;4.65;;;;;;;23.98;62.44;99608.72;2245540;39;20035;-78
2021/06/19 03:10:57;;;;;;;9.38;4.15;;;;;;;24.02;62.29;99607.13;2245377;39;20028;-78
2021/06/19 03:12:29;;;;;;;12.23;5.25;;;;;;;24.04;62.34;99615.91;2245485;39;20031;-79
2021/06/19 03:14:00;;;;;;;10.98;4.18;;;;;;;24.03;62.26;99611.53;2244913;39;20030;-79
2021/06/19 03:15:33;;;;;;;13.98;4.93;;;;;;;24.05;62.25;99623.03;2245034;39;20062;-79
2021/06/19 03:17:04;;;;;;;14.25;5.47;;;;;;;24.07;62.31;99626.34;2245795;39;20047;-75
2021/06/19 03:18:36;;;;;;;9.88;4.10;;;;;;;24.10;62.05;99627.75;2243901;39;20042;-76
2021/06/19 03:20:10;;;;;;;9.98;5.00;;;;;;;24.09;62.16;99629.66;2243590;39;20023;-76
2021/06/19 03:21:43;;;;;;;9.23;4.75;;;;;;;24.05;62.35;99631.22;2245907;39;20050;-79
2021/06/19 03:23:15;;;;;;;9.98;4.53;;;;;;;24.00;62.31;99628.38;2243077;39;20035;-78
2021/06/19 03:24:46;;;;;;;20.63;5.30;;;;;;;23.90;63.10;99642.63;2244760;39;20131;-79
2021/06/19 03:26:17;;;;;;;12.52;5.25;;;;;;;23.83;63.11;99648.22;2243628;39;20658;-78
2021/06/19 03:27:51;;;;;;;10.73;5.43;;;;;;;23.79;63.37;99647.09;2242396;39;20047;-79
2021/06/19 03:29:23;;;;;;;11.02;5.25;;;;;;;23.74;63.63;99657.88;2242887;39;20054;-78
2021/06/19 03:30:54;;;;;;;14.90;5.43;;;;;;;23.74;63.85;99660.59;2244724;39;20016;-79
2021/06/19 03:32:25;;;;;;;9.32;5.07;;;;;;;23.78;63.65;99669.97;2245989;39;20046;-79
2021/06/19 03:33:57;;;;;;;9.35;4.63;;;;;;;23.87;63.49;99666.88;2242517;39;20048;-78
2021/06/19 03:35:29;;;;;;;7.97;4.55;;;;;;;23.88;63.36;99673.97;2240300;39;20042;-77
2021/06/19 03:37:01;;;;;;;8.80;4.80;;;;;;;23.91;63.06;99681.66;2244923;39;20024;-78
2021/06/19 03:38:33;;;;;;;8.02;4.55;;;;;;;23.92;62.98;99691.50;2245934;39;20063;-78
2021/06/19 03:40:07;;;;;;;7.53;4.28;;;;;;;23.97;62.50;99686.22;2245508;39;20411;-78
2021/06/19 03:41:39;;;;;;;7.70;4.03;;;;;;;24.01;62.21;99683.81;2242292;39;20051;-78
2021/06/19 03:43:12;;;;;;;13.20;4.40;;;;;;;24.02;62.09;99678.09;2242669;39;20031;-76
2021/06/19 03:44:44;;;;;;;12.20;4.35;;;;;;;24.00;62.06;99677.50;2240052;39;20473;-78
2021/06/19 03:46:15;;;;;;;8.23;3.97;;;;;;;23.98;62.11;99682.41;2241875;39;20055;-76
2021/06/19 03:47:48;;;;;;;13.57;4.32;;;;;;;23.90;62.30;99677.31;2242272;39;20376;-78
2021/06/19 03:49:20;;;;;;;13.30;4.90;;;;;;;23.78;62.71;99683.63;2242648;39;20031;-77
2021/06/19 03:50:52;;;;;;;15.60;5.15;;;;;;;23.65;63.04;99681.16;2242948;39;20070;-76
2021/06/19 03:52:23;;;;;;;14.90;4.93;;;;;;;23.52;63.52;99690.41;2244565;39;20114;-79
2021/06/19 03:53:55;;;;;;;13.52;4.97;;;;;;;23.43;63.42;99698.13;2240580;39;20470;-77
2021/06/19 03:55:28;;;;;;;9.75;4.68;;;;;;;23.38;63.76;99697.22;2241678;39;20023;-78
2021/06/19 03:56:59;;;;;;;11.02;4.53;;;;;;;23.41;63.71;99699.44;2242392;39;20513;-78
2021/06/19 03:58:33;;;;;;;8.57;4.32;;;;;;;23.49;63.41;99702.66;2242316;39;20065;-77
2021/06/19 04:00:07;;;;;;;10.63;4.25;;;;;;;23.51;63.08;99708.69;2242469;39;20035;-77
2021/06/19 04:01:38;;;;;;;15.10;5.22;;;;;;;23.40;63.49;99709.53;2243561;39;20332;-78
2021/06/19 04:03:10;;;;;;;10.63;4.38;;;;;;;23.28;63.83;99711.41;2244678;39;20068;-77
2021/06/19 04:04:41;;;;;;;13.57;5.18;;;;;;;23.19;64.01;99719.13;2245023;39;20319;-78
2021/06/19 04:06:13;;;;;;;11.95;4.78;;;;;;;23.16;64.35;99719.56;2243237;39;20031;-77
2021/06/19 04:07:45;;;;;;;13.52;4.90;;;;;;;23.12;64.80;99730.13;2242394;39;20047;-77
2021/06/19 04:09:17;;;;;;;11.35;4.80;;;;;;;23.09;65.18;99729.75;2242938;39;20399;-76
2021/06/19 04:10:49;;;;;;;15.50;4.60;;;;;;;23.04;65.46;99744.09;2246195;39;20037;-77
2021/06/19 04:12:21;;;;;;;14.88;5.15;;;;;;;22.97;65.72;99744.19;2243895;39;20028;-78
2021/06/19 04:13:54;;;;;;;15.00;5.13;;;;;;;22.95;65.94;99748.22;2243678;39;20128;-77
2021/06/19 04:15:26;;;;;;;14.38;6.18;;;;;;;22.91;66.09;99739.66;2245585;39;20024;-77
2021/06/19 04:16:57;;;;;;;12.82;4.75;;;;;;;22.89;66.26;99742.63;2246871;39;20031;-78
2021/06/19 04:18:29;;;;;;;15.93;4.88;;;;;;;22.90;66.34;99744.28;2243091;39;20168;-78
2021/06/19 04:19:59;;;;;;;12.18;5.82;;;;;;;22.90;66.25;99755.19;2238886;39;20055;-78
2021/06/19 04:21:31;;;;;;;11.55;4.82;;;;;;;22.87;66.59;99757.56;2242340;39;20054;-76
2021/06/19 04:23:03;;;;;;;14.95;6.63;;;;;;;22.88;66.25;99753.78;2244704;39;20038;-76
2021/06/19 04:24:34;;;;;;;13.80;5.28;;;;;;;22.87;66.17;99761.09;2244733;39;20043;-77
2021/06/19 04:26:06;;;;;;;13.48;4.72;;;;;;;22.88;66.03;99749.16;2244565;39;20023;-77
2021/06/19 04:27:39;;;;;;;10.73;5.05;;;;;;;22.95;65.90;99751.78;2243533;39;20019;-76
2021/06/19 04:29:12;;;;;;;15.13;5.35;;;;;;;22.95;65.92;99753.69;2243862;39;20038;-80
2021/06/19 04:30:44;;;;;;;13.07;5.50;;;;;;;22.89;66.04;99747.25;2241633;39;20458;-77
2021/06/19 04:32:16;;;;;;;15.63;5.40;;;;;;;22.84;66.46;99749.84;2242962;39;20043;-79
2021/06/19 04:33:48;;;;;;;13.35;5.35;;;;;;;22.79;66.58;99758.72;2244560;39;20043;-81
2021/06/19 04:35:20;;;;;;;12.90;5.47;;;;;;;22.76;66.83;99748.31;2243855;39;20027;-79
2021/06/19 04:36:51;;;;;;;10.60;4.72;;;;;;;22.75;66.81;99760.25;2245335;39;20491;-80
2021/06/19 04:38:23;;;;;;;15.73;6.15;;;;;;;22.76;67.04;99753.75;2243223;39;20051;-81
2021/06/19 04:39:58;;;;;;;10.07;4.95;;;;;;;22.80;66.98;99754.94;2238232;39;20031;-77
2021/06/19 04:41:33;;;;;;;11.75;5.63;;;;;;;22.92;66.77;99754.13;2242981;39;20055;-77
2021/06/19 04:43:06;;;;;;;16.15;6.07;;;;;;;22.99;66.44;99760.31;2242111;39;20039;-76
2021/06/19 04:45:00;;;;;;;16.05;5.85;;;;;;;23.08;66.30;99760.81;2242421;39;20066;-78
2021/06/19 04:46:32;;;;;;;11.80;5.55;;;;;;;23.10;66.08;99761.38;2242761;39;20390;-79
2021/06/19 04:48:06;;;;;;;13.10;6.00;;;;;;;23.17;65.88;99760.22;2247723;39;20039;-76
2021/06/19 04:49:37;;;;;;;15.73;5.28;;;;;;;23.25;65.81;99760.97;2248557;39;20055;-77
2021/06/19 04:51:09;;;;;;;12.32;5.25;;;;;;;23.26;65.67;99759.91;2245352;39;20076;-78
2021/06/19 04:52:42;;;;;;;12.73;5.32;;;;;;;23.25;65.75;99767.25;2244910;39;20074;-77
2021/06/19 04:54:15;;;;;;;13.75;5.30;;;;;;;23.28;65.63;99763.22;2244875;39;20031;-77
2021/06/19 04:55:46;;;;;;;13.27;5.85;;;;;;;23.33;65.48;99758.72;2243764;39;20051;-77
2021/06/19 04:57:17;;;;;;;11.07;4.93;;;;;;;23.38;64.98;99760.75;2242535;39;20051;-76
2021/06/19 04:58:49;;;;;;;13.23;4.97;;;;;;;23.43;64.77;99760.84;2245736;39;20043;-78
2021/06/19 05:00:24;;;;;;;14.25;5.18;;;;;;;23.48;64.19;99766.44;2243399;39;20088;-77
2021/06/19 05:01:55;;;;;;;10.02;5.13;;;;;;;23.56;64.07;99761.69;2242599;39;20020;-82
2021/06/19 05:03:26;;;;;;;11.52;4.93;;;;;;;23.61;63.65;99759.09;2243510;39;20039;-78
2021/06/19 05:04:58;;;;;;;14.65;5.15;;;;;;;23.63;63.23;99765.13;2248161;39;20031;-79
2021/06/19 05:06:30;;;;;;;10.98;4.20;;;;;;;23.66;62.98;99762.75;2245791;39;20020;-78
2021/06/19 05:08:03;;;;;;;9.27;4.60;;;;;;;23.73;62.80;99765.34;2244649;39;20061;-79
2021/06/19 05:09:34;;;;;;;15.90;4.47;;;;;;;23.77;62.63;99768.44;2245838;39;20031;-80
2021/06/19 05:11:05;;;;;;;12.30;5.05;;;;;;;23.78;62.22;99760.03;2247461;39;20031;-81
2021/06/19 05:12:43;;;;;;;11.88;5.03;;;;;;;23.78;62.61;99765.47;2245888;39;20016;-80
2021/06/19 05:14:14;;;;;;;9.38;4.43;;;;;;;23.78;62.36;99762.75;2244261;39;20035;-80
2021/06/19 05:15:50;;;;;;;12.07;4.15;;;;;;;23.89;62.09;99766.53;2248625;39;20053;-80
2021/06/19 05:17:21;;;;;;;13.23;5.13;;;;;;;23.96;61.79;99756.34;2243974;39;20035;-77
2021/06/19 05:18:53;;;;;;;12.55;4.63;;;;;;;24.01;61.53;99758.34;2247169;39;20038;-80
2021/06/19 05:20:28;;;;;;;10.85;4.47;;;;;;;24.05;60.72;99762.25;2244421;39;20179;-82
2021/06/19 05:22:00;;;;;;;12.00;4.78;;;;;;;24.05;61.06;99775.06;2241579;39;20024;-79
2021/06/19 05:23:31;;;;;;;10.20;4.10;;;;;;;24.10;60.76;99765.09;2245364;39;20039;-78
2021/06/19 05:25:04;;;;;;;13.88;5.05;;;;;;;24.13;60.36;99759.16;2243814;39;20043;-81
2021/06/19 05:26:35;;;;;;;9.85;4.57;;;;;;;24.19;60.15;99764.69;2242188;39;20037;-78
2021/06/19 05:28:07;;;;;;;8.75;4.53;;;;;;;24.22;60.03;99766.97;2247041;39;20471;-78
2021/06/19 05:29:38;;;;;;;13.20;4.53;;;;;;;24.27;59.74;99759.69;2248229;39;20447;-79
2021/06/19 05:31:12;;;;;;;12.68;4.38;;;;;;;24.35;59.34;99768.56;2247629;39;20050;-81
2021/06/19 05:32:43;;;;;;;10.70;4.38;;;;;;;24.37;58.94;99764.53;2249325;39;20039;-82
2021/06/19 05:34:14;;;;;;;14.15;4.38;;;;;;;24.41;58.89;99762.97;2247678;39;20027;-84
2021/06/19 05:35:48;;;;;;;16.17;4.82;;;;;;;24.42;59.14;99764.63;2251054;39;20034;-81
2021/06/19 05:37:20;;;;;;;13.13;4.30;;;;;;;24.41;58.92;99762.16;2248212;39;20096;-81
2021/06/19 05:38:52;;;;;;;11.70;4.53;;;;;;;24.42;59.03;99764.63;2243464;39;20086;-84
2021/06/19 05:40:25;;;;;;;12.20;5.43;;;;;;;24.44;58.88;99758.91;2243556;39;20027;-85
2021/06/19 05:41:57;;;;;;;14.82;4.80;;;;;;;24.48;58.66;99768.31;2244234;39;20031;-84
2021/06/19 05:43:29;;;;;;;14.63;4.93;;;;;;;24.51;58.72;99766.97;2245825;39;20079;-82
2021/06/19 05:45:01;;;;;;;15.07;5.07;;;;;;;24.46;58.97;99775.91;2245057;39;20047;-80
2021/06/19 05:46:33;;;;;;;13.13;4.78;;;;;;;24.42;59.16;99770.09;2248032;39;20027;-80
2021/06/19 05:48:06;;;;;;;20.73;5.97;;;;;;;24.45;59.09;99775.09;2246120;39;20024;-80
2021/06/19 05:49:38;;;;;;;18.42;5.53;;;;;;;24.44;59.10;99778.03;2245557;39;20066;-78
2021/06/19 05:51:09;;;;;;;15.18;4.70;;;;;;;24.43;59.32;99777.22;2246642;39;20056;-81
2021/06/19 05:52:41;;;;;;;14.63;5.20;;;;;;;24.41;59.18;99778.56;2244980;39;20042;-81
2021/06/19 05:54:14;;;;;;;15.35;5.57;;;;;;;24.38;59.71;99774.38;2248111;39;20019;-79
2021/06/19 05:55:47;;;;;;;14.48;4.80;;;;;;;24.42;59.38;99780.19;2248803;39;20166;-81
2021/06/19 05:57:17;;;;;;;12.35;5.70;;;;;;;24.48;59.58;99784.69;2245787;39;20027;-80
2021/06/19 05:58:49;;;;;;;12.52;4.50;;;;;;;24.58;59.30;99779.44;2242666;39;20043;-80
2021/06/19 06:00:21;;;;;;;15.10;5.15;;;;;;;24.63;58.72;99780.56;2245099;39;20047;-85
2021/06/19 06:01:55;;;;;;;15.75;4.85;;;;;;;24.60;58.86;99779.16;2248545;39;20035;-79
2021/06/19 06:03:26;;;;;;;15.63;5.43;;;;;;;24.56;58.98;99776.09;2247009;39;20124;-80
2021/06/19 06:04:57;;;;;;;13.85;5.45;;;;;;;24.59;58.73;99764.69;2249511;39;20034;-82
2021/06/19 06:06:29;;;;;;;16.20;5.18;;;;;;;24.67;58.57;99766.19;2245279;39;20043;-82
2021/06/19 06:08:01;;;;;;;10.80;5.10;;;;;;;24.73;58.26;99776.19;2242345;39;20304;-83
2021/06/19 06:09:34;;;;;;;11.48;4.40;;;;;;;24.79;57.77;99777.09;2245012;39;20039;-81
2021/06/19 06:11:06;;;;;;;12.82;4.93;;;;;;;24.83;57.51;99778.25;2245772;39;20024;-80
2021/06/19 06:12:37;;;;;;;15.68;5.32;;;;;;;24.87;57.61;99770.38;2248265;39;20079;-80
2021/06/19 06:14:08;;;;;;;18.98;5.82;;;;;;;24.91;57.65;99782.50;2246770;39;20031;-81
2021/06/19 06:15:40;;;;;;;14.18;4.43;;;;;;;24.91;57.15;99790.72;2249216;39;20459;-82
2021/06/19 06:17:15;;;;;;;14.93;5.15;;;;;;;24.89;57.12;99781.91;2243234;39;20028;-79
2021/06/19 06:18:46;;;;;;;10.00;4.50;;;;;;;24.87;57.21;99786.78;2249043;39;20031;-84
2021/06/19 06:20:18;;;;;;;10.13;4.75;;;;;;;24.87;57.41;99786.78;2250680;39;20042;-82
2021/06/19 06:21:50;;;;;;;12.40;5.22;;;;;;;24.94;57.29;99790.19;2249129;39;20303;-79
2021/06/19 06:23:23;;;;;;;10.38;4.30;;;;;;;25.04;57.25;99787.63;2249614;39;20039;-82
2021/06/19 06:24:55;;;;;;;9.85;4.60;;;;;;;25.13;57.23;99781.78;2246346;39;20076;-83
2021/06/19 06:26:27;;;;;;;15.13;5.43;;;;;;;25.19;57.43;99791.72;2249665;39;20020;-83
2021/06/19 06:28:02;;;;;;;12.18;5.10;;;;;;;25.18;57.12;99790.88;2249870;39;20035;-82
2021/06/19 06:29:34;;;;;;;10.88;5.10;;;;;;;25.29;57.14;99788.31;2248884;39;20058;-82
2021/06/19 06:31:05;;;;;;;10.65;4.90;;;;;;;25.34;57.35;99797.44;2249827;39;20418;-82
2021/06/19 06:32:38;;;;;;;15.93;4.68;;;;;;;25.33;57.09;99784.84;2250089;39;20027;-80
2021/06/19 06:34:09;;;;;;;16.40;6.70;;;;;;;25.26;57.25;99788.84;2249485;39;20024;-82
2021/06/19 06:35:41;;;;;;;14.32;6.70;;;;;;;25.24;57.61;99780.84;2250987;39;20031;-83
2021/06/19 06:37:13;;;;;;;12.40;5.57;;;;;;;25.19;58.02;99780.78;2248434;39;20027;-82
2021/06/19 06:38:45;;;;;;;13.93;5.90;;;;;;;25.25;57.83;99779.78;2244486;39;20526;-82
2021/06/19 06:40:18;;;;;;;12.23;5.85;;;;;;;25.37;57.63;99783.28;2245221;39;20028;-80
2021/06/19 06:41:49;;;;;;;14.23;5.47;;;;;;;25.51;57.48;99785.69;2245415;39;20035;-84
2021/06/19 06:43:20;;;;;;;10.05;5.07;;;;;;;25.57;57.28;99779.22;2245948;39;20223;-81
2021/06/19 06:44:51;;;;;;;8.48;5.10;;;;;;;25.66;56.82;99780.44;2251205;39;20031;-84
2021/06/19 06:46:25;;;;;;;13.38;5.30;;;;;;;25.76;56.68;99770.72;2252364;39;20019;-86
2021/06/19 06:47:58;;;;;;;13.45;6.35;;;;;;;25.75;56.91;99777.28;2251561;39;20051;-85
2021/06/19 06:49:29;;;;;;;11.75;5.57;;;;;;;25.78;56.80;99772.13;2252560;39;20019;-86
2021/06/19 06:51:01;;;;;;;12.23;5.45;;;;;;;25.91;56.53;99779.16;2253528;39;20030;-86
2021/06/19 06:52:35;;;;;;;11.07;5.88;;;;;;;26.08;56.18;99779.09;2253048;39;20027;-85
2021/06/19 06:54:06;;;;;;;14.30;6.97;;;;;;;26.24;55.58;99768.34;2253617;39;20034;-84
2021/06/19 06:55:40;;;;;;;13.30;6.20;;;;;;;26.30;55.47;99776.38;2252990;39;20027;-85
2021/06/19 06:57:12;;;;;;;12.30;5.90;;;;;;;26.35;55.36;99777.53;2251978;39;20026;-85
2021/06/19 06:58:44;;;;;;;10.95;5.60;;;;;;;26.29;55.49;99769.25;2249640;39;20050;-84
2021/06/19 07:00:17;;;;;;;13.95;6.30;;;;;;;26.22;55.58;99786.94;2249949;39;20034;-81
2021/06/19 07:01:48;;;;;;;16.65;7.68;;;;;;;26.14;55.71;99777.28;2246778;39;20047;-84
2021/06/19 07:03:23;;;;;;;17.85;6.05;;;;;;;26.12;55.47;99779.44;2244790;39;20031;-85
2021/06/19 07:04:54;;;;;;;12.35;6.95;;;;;;;26.28;55.14;99773.06;2246784;39;20039;-85
2021/06/19 07:06:27;;;;;;;18.13;6.72;;;;;;;26.48;54.85;99774.38;2243745;39;20031;-82
2021/06/19 07:07:59;;;;;;;13.25;5.88;;;;;;;26.52;54.47;99772.78;2244587;39;20039;-85
2021/06/19 07:09:30;;;;;;;13.15;6.45;;;;;;;26.63;54.22;99771.81;2243553;39;20039;-84
2021/06/19 07:11:01;;;;;;;13.57;6.20;;;;;;;26.69;54.01;99766.38;2246423;39;20138;-83